sensor_id;sensor_type;location;lat;lon;timestamp;pressure;altitude;pressure_sealevel;temperature;humidity
86206;BME280;76857;48.140;11.594;2024-03-22T05:02:36;96364.88;;;6.68;83.68
86206;BME280;76857;48.140;11.594;2024-03-22T05:05:02;96362.28;;;6.81;83.27
86206;BME280;76857;48.140;11.594;2024-03-22T05:07:28;96362.28;;;6.88;82.70
86206;BME280;76857;48.140;11.594;2024-03-22T05:09:53;96356.41;;;6.92;82.46
86206;BME280;76857;48.140;11.594;2024-03-22T05:12:19;96357.38;;;6.78;83.31
86206;BME280;76857;48.140;11.594;2024-03-22T05:14:44;96356.19;;;6.94;82.68
86206;BME280;76857;48.140;11.594;2024-03-22T05:17:10;96356.38;;;6.86;83.29
86206;BME280;76857;48.140;11.594;2024-03-22T05:19:35;96355.94;;;6.82;83.93
86206;BME280;76857;48.140;11.594;2024-03-22T05:22:00;96353.97;;;7.04;82.64
86206;BME280;76857;48.140;11.594;2024-03-22T05:24:27;96353.34;;;7.02;82.82
86206;BME280;76857;48.140;11.594;2024-03-22T05:26:53;96358.88;;;7.20;82.25
86206;BME280;76857;48.140;11.594;2024-03-22T05:29:18;96353.81;;;7.32;81.79
86206;BME280;76857;48.140;11.594;2024-03-22T05:31:48;96358.50;;;7.30;82.23
86206;BME280;76857;48.140;11.594;2024-03-22T05:34:14;96355.06;;;7.36;81.72
86206;BME280;76857;48.140;11.594;2024-03-22T05:36:40;96360.56;;;7.41;81.97
86206;BME280;76857;48.140;11.594;2024-03-22T05:39:06;96362.41;;;7.53;81.26
86206;BME280;76857;48.140;11.594;2024-03-22T05:41:31;96360.97;;;7.51;81.90
86206;BME280;76857;48.140;11.594;2024-03-22T05:43:57;96359.75;;;7.47;82.05
86206;BME280;76857;48.140;11.594;2024-03-22T05:46:22;96359.13;;;7.45;82.07
86206;BME280;76857;48.140;11.594;2024-03-22T05:48:48;96352.41;;;7.49;82.11
86206;BME280;76857;48.140;11.594;2024-03-22T05:51:16;96351.78;;;7.53;81.71
86206;BME280;76857;48.140;11.594;2024-03-22T05:53:41;96354.22;;;7.75;81.18
86206;BME280;76857;48.140;11.594;2024-03-22T05:56:07;96346.91;;;7.57;81.51
86206;BME280;76857;48.140;11.594;2024-03-22T05:58:34;96343.81;;;7.67;81.06
86206;BME280;76857;48.140;11.594;2024-03-22T06:00:59;96338.91;;;7.83;80.56
86206;BME280;76857;48.140;11.594;2024-03-22T06:03:25;96342.59;;;7.82;80.05
86206;BME280;76857;48.140;11.594;2024-03-22T06:05:50;96342.78;;;7.94;79.65
86206;BME280;76857;48.140;11.594;2024-03-22T06:08:20;96341.75;;;8.02;78.94
86206;BME280;76857;48.140;11.594;2024-03-22T06:10:45;96346.22;;;8.08;78.74
86206;BME280;76857;48.140;11.594;2024-03-22T06:13:11;96342.34;;;8.17;78.92
86206;BME280;76857;48.140;11.594;2024-03-22T06:15:36;96344.56;;;8.26;78.43
86206;BME280;76857;48.140;11.594;2024-03-22T06:18:02;96337.78;;;8.24;78.78
86206;BME280;76857;48.140;11.594;2024-03-22T06:20:27;96336.56;;;8.26;78.13
86206;BME280;76857;48.140;11.594;2024-03-22T06:22:53;96333.09;;;8.39;77.48
86206;BME280;76857;48.140;11.594;2024-03-22T06:25:18;96332.28;;;8.32;77.88
86206;BME280;76857;48.140;11.594;2024-03-22T06:27:44;96336.16;;;8.36;77.52
86206;BME280;76857;48.140;11.594;2024-03-22T06:30:10;96330.66;;;8.37;77.16
86206;BME280;76857;48.140;11.594;2024-03-22T06:32:35;96339.00;;;8.41;77.19
86206;BME280;76857;48.140;11.594;2024-03-22T06:35:01;96333.47;;;8.94;75.38
86206;BME280;76857;48.140;11.594;2024-03-22T06:37:28;96334.06;;;9.58;73.40
86206;BME280;76857;48.140;11.594;2024-03-22T06:39:53;96326.50;;;9.80;72.06
86206;BME280;76857;48.140;11.594;2024-03-22T06:42:19;96327.31;;;9.56;72.96
86206;BME280;76857;48.140;11.594;2024-03-22T06:44:44;96329.59;;;9.52;72.31
86206;BME280;76857;48.140;11.594;2024-03-22T06:47:10;96325.38;;;9.70;72.36
86206;BME280;76857;48.140;11.594;2024-03-22T06:49:35;96325.94;;;10.15;71.19
86206;BME280;76857;48.140;11.594;2024-03-22T06:52:01;96323.28;;;11.06;67.66
86206;BME280;76857;48.140;11.594;2024-03-22T06:54:26;96327.22;;;12.09;64.46
86206;BME280;76857;48.140;11.594;2024-03-22T06:56:52;96326.13;;;12.45;63.23
86206;BME280;76857;48.140;11.594;2024-03-22T06:59:17;96328.34;;;11.90;64.13
86206;BME280;76857;48.140;11.594;2024-03-22T07:01:43;96329.75;;;11.81;63.69
86206;BME280;76857;48.140;11.594;2024-03-22T07:04:09;96335.13;;;11.93;63.63
86206;BME280;76857;48.140;11.594;2024-03-22T07:06:34;96335.91;;;12.40;61.97
86206;BME280;76857;48.140;11.594;2024-03-22T07:08:59;96339.44;;;12.80;60.35
86206;BME280;76857;48.140;11.594;2024-03-22T07:11:25;96337.00;;;13.47;58.42
86206;BME280;76857;48.140;11.594;2024-03-22T07:13:50;96329.16;;;13.29;59.25
86206;BME280;76857;48.140;11.594;2024-03-22T07:16:16;96328.56;;;13.27;59.58
86206;BME280;76857;48.140;11.594;2024-03-22T07:18:41;96329.22;;;13.17;60.44
86206;BME280;76857;48.140;11.594;2024-03-22T07:21:07;96325.63;;;13.57;59.39
86206;BME280;76857;48.140;11.594;2024-03-22T07:23:33;96326.25;;;14.47;56.27
86206;BME280;76857;48.140;11.594;2024-03-22T07:25:58;96315.69;;;15.33;53.08
86206;BME280;76857;48.140;11.594;2024-03-22T07:28:24;96317.78;;;15.79;51.52
86206;BME280;76857;48.140;11.594;2024-03-22T07:30:50;96313.34;;;15.63;52.69
86206;BME280;76857;48.140;11.594;2024-03-22T07:33:15;96321.75;;;15.45;52.97
86206;BME280;76857;48.140;11.594;2024-03-22T07:35:43;96322.88;;;15.00;53.88
86206;BME280;76857;48.140;11.594;2024-03-22T07:38:10;96328.41;;;14.12;55.22
86206;BME280;76857;48.140;11.594;2024-03-22T07:40:35;96329.28;;;13.51;57.69
86206;BME280;76857;48.140;11.594;2024-03-22T07:43:01;96336.63;;;13.27;59.72
86206;BME280;76857;48.140;11.594;2024-03-22T07:45:32;96328.34;;;12.37;63.39
86206;BME280;76857;48.140;11.594;2024-03-22T07:47:57;96322.50;;;12.51;63.13
86206;BME280;76857;48.140;11.594;2024-03-22T07:50:23;96324.56;;;13.41;60.32
86206;BME280;76857;48.140;11.594;2024-03-22T07:52:48;96323.88;;;13.34;60.60
86206;BME280;76857;48.140;11.594;2024-03-22T07:55:14;96326.03;;;13.99;59.20
86206;BME280;76857;48.140;11.594;2024-03-22T07:57:39;96325.13;;;14.10;58.37
86206;BME280;76857;48.140;11.594;2024-03-22T08:00:05;96324.97;;;14.16;57.93
86206;BME280;76857;48.140;11.594;2024-03-22T08:02:32;96309.94;;;14.54;56.81
86206;BME280;76857;48.140;11.594;2024-03-22T08:04:57;96300.06;;;15.03;56.59
86206;BME280;76857;48.140;11.594;2024-03-22T08:07:22;96299.31;;;16.30;53.74
86206;BME280;76857;48.140;11.594;2024-03-22T08:09:48;96299.75;;;17.41;50.79
86206;BME280;76857;48.140;11.594;2024-03-22T08:12:13;96306.81;;;18.44;47.25
86206;BME280;76857;48.140;11.594;2024-03-22T08:14:39;96300.63;;;18.13;46.89
86206;BME280;76857;48.140;11.594;2024-03-22T08:17:05;96294.41;;;18.12;47.59
86206;BME280;76857;48.140;11.594;2024-03-22T08:19:31;96300.03;;;18.56;47.06
86206;BME280;76857;48.140;11.594;2024-03-22T08:21:57;96296.22;;;19.76;44.25
86206;BME280;76857;48.140;11.594;2024-03-22T08:24:24;96287.59;;;20.84;41.71
86206;BME280;76857;48.140;11.594;2024-03-22T08:26:50;96293.88;;;21.46;39.37
86206;BME280;76857;48.140;11.594;2024-03-22T08:29:15;96282.47;;;20.59;39.27
86206;BME280;76857;48.140;11.594;2024-03-22T08:31:41;96290.63;;;20.25;41.10
86206;BME280;76857;48.140;11.594;2024-03-22T08:34:08;96286.47;;;21.09;39.17
86206;BME280;76857;48.140;11.594;2024-03-22T08:36:33;96283.94;;;20.46;41.08
86206;BME280;76857;48.140;11.594;2024-03-22T08:38:59;96285.72;;;19.98;41.01
86206;BME280;76857;48.140;11.594;2024-03-22T08:41:25;96286.63;;;21.41;39.46
86206;BME280;76857;48.140;11.594;2024-03-22T08:43:50;96276.19;;;19.28;42.37
86206;BME280;76857;48.140;11.594;2024-03-22T08:46:16;96274.78;;;18.91;41.75
86206;BME280;76857;48.140;11.594;2024-03-22T08:48:42;96276.44;;;18.77;43.51
86206;BME280;76857;48.140;11.594;2024-03-22T08:51:07;96274.81;;;19.35;43.21
86206;BME280;76857;48.140;11.594;2024-03-22T08:53:32;96268.59;;;20.36;39.83
86206;BME280;76857;48.140;11.594;2024-03-22T08:55:58;96273.91;;;20.46;39.89
86206;BME280;76857;48.140;11.594;2024-03-22T08:58:24;96262.59;;;19.38;43.09
86206;BME280;76857;48.140;11.594;2024-03-22T09:00:49;96269.72;;;19.73;40.00
86206;BME280;76857;48.140;11.594;2024-03-22T09:03:15;96256.88;;;19.00;40.99
86206;BME280;76857;48.140;11.594;2024-03-22T09:05:41;96259.56;;;18.31;42.93
86206;BME280;76857;48.140;11.594;2024-03-22T09:08:06;96261.69;;;18.39;42.68
86206;BME280;76857;48.140;11.594;2024-03-22T09:10:32;96251.97;;;18.28;43.56
86206;BME280;76857;48.140;11.594;2024-03-22T09:12:57;96242.06;;;18.88;41.65
86206;BME280;76857;48.140;11.594;2024-03-22T09:15:23;96245.81;;;19.80;40.39
86206;BME280;76857;48.140;11.594;2024-03-22T09:17:49;96245.44;;;18.44;42.41
86206;BME280;76857;48.140;11.594;2024-03-22T09:20:15;96238.94;;;18.55;44.20
86206;BME280;76857;48.140;11.594;2024-03-22T09:22:40;96238.34;;;18.73;42.28
86206;BME280;76857;48.140;11.594;2024-03-22T09:25:06;96234.47;;;18.95;42.21
86206;BME280;76857;48.140;11.594;2024-03-22T09:27:32;96244.97;;;19.84;40.03
86206;BME280;76857;48.140;11.594;2024-03-22T09:29:58;96238.25;;;18.09;43.25
86206;BME280;76857;48.140;11.594;2024-03-22T09:32:23;96227.25;;;18.75;42.89
86206;BME280;76857;48.140;11.594;2024-03-22T09:34:49;96230.25;;;18.73;43.19
86206;BME280;76857;48.140;11.594;2024-03-22T09:37:17;96232.25;;;18.22;43.68
86206;BME280;76857;48.140;11.594;2024-03-22T09:39:43;96216.78;;;19.12;41.38
86206;BME280;76857;48.140;11.594;2024-03-22T09:42:14;96219.25;;;19.82;39.53
86206;BME280;76857;48.140;11.594;2024-03-22T09:44:47;96223.00;;;19.13;40.87
86206;BME280;76857;48.140;11.594;2024-03-22T09:47:17;96217.63;;;18.38;42.13
86206;BME280;76857;48.140;11.594;2024-03-22T09:49:43;96219.91;;;17.91;42.87
86206;BME280;76857;48.140;11.594;2024-03-22T09:52:14;96213.53;;;18.61;40.41
86206;BME280;76857;48.140;11.594;2024-03-22T09:54:43;96209.72;;;19.55;39.73
86206;BME280;76857;48.140;11.594;2024-03-22T09:57:14;96206.13;;;19.65;39.40
86206;BME280;76857;48.140;11.594;2024-03-22T09:59:43;96207.00;;;20.42;37.80
86206;BME280;76857;48.140;11.594;2024-03-22T10:02:11;96195.59;;;19.25;38.08
86206;BME280;76857;48.140;11.594;2024-03-22T10:04:38;96207.66;;;18.34;40.06
86206;BME280;76857;48.140;11.594;2024-03-22T10:07:04;96204.56;;;17.76;41.63
86206;BME280;76857;48.140;11.594;2024-03-22T10:09:30;96199.13;;;17.91;40.70
86206;BME280;76857;48.140;11.594;2024-03-22T10:11:56;96192.72;;;18.62;39.93
86206;BME280;76857;48.140;11.594;2024-03-22T10:14:22;96192.63;;;19.21;39.39
86206;BME280;76857;48.140;11.594;2024-03-22T10:16:51;96184.81;;;19.19;40.12
86206;BME280;76857;48.140;11.594;2024-03-22T10:19:23;96188.25;;;19.64;38.72
86206;BME280;76857;48.140;11.594;2024-03-22T10:22:01;96177.72;;;19.29;39.28
86206;BME280;76857;48.140;11.594;2024-03-22T10:24:27;96174.63;;;20.27;37.42
86206;BME280;76857;48.140;11.594;2024-03-22T10:26:53;96169.84;;;20.19;36.85
86206;BME280;76857;48.140;11.594;2024-03-22T10:29:20;96178.06;;;19.56;38.75
86206;BME280;76857;48.140;11.594;2024-03-22T10:31:48;96174.31;;;19.13;39.91
86206;BME280;76857;48.140;11.594;2024-03-22T10:34:14;96169.84;;;18.88;38.91
86206;BME280;76857;48.140;11.594;2024-03-22T10:36:41;96167.69;;;18.90;39.25
86206;BME280;76857;48.140;11.594;2024-03-22T10:39:07;96158.84;;;19.18;39.80
86206;BME280;76857;48.140;11.594;2024-03-22T10:41:34;96164.28;;;18.74;40.45
86206;BME280;76857;48.140;11.594;2024-03-22T10:43:59;96155.97;;;18.56;41.25
86206;BME280;76857;48.140;11.594;2024-03-22T10:46:30;96166.59;;;18.91;41.38
86206;BME280;76857;48.140;11.594;2024-03-22T10:48:57;96156.94;;;19.53;39.32
86206;BME280;76857;48.140;11.594;2024-03-22T10:51:24;96152.94;;;18.67;40.62
86206;BME280;76857;48.140;11.594;2024-03-22T10:53:52;96151.78;;;19.22;40.10
86206;BME280;76857;48.140;11.594;2024-03-22T10:56:21;96153.09;;;18.91;41.02
86206;BME280;76857;48.140;11.594;2024-03-22T10:58:47;96150.84;;;19.71;38.81
86206;BME280;76857;48.140;11.594;2024-03-22T11:01:25;96145.41;;;19.37;39.57
86206;BME280;76857;48.140;11.594;2024-03-22T11:03:51;96149.97;;;19.76;39.42
86206;BME280;76857;48.140;11.594;2024-03-22T11:06:20;96131.16;;;19.27;40.51
86206;BME280;76857;48.140;11.594;2024-03-22T11:08:50;96133.81;;;19.03;40.93
86206;BME280;76857;48.140;11.594;2024-03-22T11:11:17;96129.72;;;19.05;40.19
86206;BME280;76857;48.140;11.594;2024-03-22T11:13:47;96126.44;;;18.74;42.21
86206;BME280;76857;48.140;11.594;2024-03-22T11:16:14;96120.59;;;19.30;42.84
86206;BME280;76857;48.140;11.594;2024-03-22T11:18:40;96115.16;;;18.52;41.39
86206;BME280;76857;48.140;11.594;2024-03-22T11:21:06;96110.38;;;18.88;42.11
86206;BME280;76857;48.140;11.594;2024-03-22T11:23:36;96110.00;;;18.02;41.81
86206;BME280;76857;48.140;11.594;2024-03-22T11:26:02;96110.03;;;17.91;42.21
86206;BME280;76857;48.140;11.594;2024-03-22T11:28:29;96107.63;;;18.54;42.09
86206;BME280;76857;48.140;11.594;2024-03-22T11:30:55;96104.53;;;18.22;43.17
86206;BME280;76857;48.140;11.594;2024-03-22T11:33:20;96102.66;;;18.66;41.78
86206;BME280;76857;48.140;11.594;2024-03-22T11:35:46;96097.81;;;18.68;41.59
86206;BME280;76857;48.140;11.594;2024-03-22T11:38:11;96090.59;;;17.94;42.12
86206;BME280;76857;48.140;11.594;2024-03-22T11:40:37;96084.44;;;18.38;42.91
86206;BME280;76857;48.140;11.594;2024-03-22T11:43:03;96078.72;;;18.45;42.54
86206;BME280;76857;48.140;11.594;2024-03-22T11:45:30;96077.72;;;18.30;42.35
86206;BME280;76857;48.140;11.594;2024-03-22T11:48:01;96066.81;;;17.96;42.13
86206;BME280;76857;48.140;11.594;2024-03-22T11:50:27;96066.81;;;17.96;43.83
86206;BME280;76857;48.140;11.594;2024-03-22T11:52:53;96055.69;;;18.08;42.70
86206;BME280;76857;48.140;11.594;2024-03-22T11:55:18;96056.41;;;18.24;44.42
86206;BME280;76857;48.140;11.594;2024-03-22T11:57:50;96048.13;;;18.10;43.03
86206;BME280;76857;48.140;11.594;2024-03-22T12:00:18;96039.91;;;18.30;42.56
86206;BME280;76857;48.140;11.594;2024-03-22T12:02:44;96038.28;;;18.29;43.63
86206;BME280;76857;48.140;11.594;2024-03-22T12:05:10;96038.09;;;18.16;44.24
86206;BME280;76857;48.140;11.594;2024-03-22T12:07:36;96031.34;;;18.62;43.20
86206;BME280;76857;48.140;11.594;2024-03-22T12:10:02;96028.09;;;18.21;42.88
86206;BME280;76857;48.140;11.594;2024-03-22T12:12:29;96021.94;;;18.06;43.49
86206;BME280;76857;48.140;11.594;2024-03-22T12:14:54;96022.97;;;18.15;42.85
86206;BME280;76857;48.140;11.594;2024-03-22T12:17:20;96015.41;;;18.12;43.24
86206;BME280;76857;48.140;11.594;2024-03-22T12:19:45;96015.19;;;18.08;43.79
86206;BME280;76857;48.140;11.594;2024-03-22T12:22:11;96006.63;;;17.91;44.02
86206;BME280;76857;48.140;11.594;2024-03-22T12:24:37;96006.91;;;17.84;44.29
86206;BME280;76857;48.140;11.594;2024-03-22T12:27:03;96006.16;;;17.74;43.83
86206;BME280;76857;48.140;11.594;2024-03-22T12:29:29;96000.94;;;17.97;44.34
86206;BME280;76857;48.140;11.594;2024-03-22T12:31:54;95993.94;;;17.91;45.18
86206;BME280;76857;48.140;11.594;2024-03-22T12:34:20;95994.59;;;18.17;44.20
86206;BME280;76857;48.140;11.594;2024-03-22T12:36:45;95987.81;;;17.76;43.93
86206;BME280;76857;48.140;11.594;2024-03-22T12:39:11;95982.72;;;17.59;44.99
86206;BME280;76857;48.140;11.594;2024-03-22T12:41:37;95976.00;;;17.46;45.50
86206;BME280;76857;48.140;11.594;2024-03-22T12:44:02;95969.53;;;17.47;45.54
86206;BME280;76857;48.140;11.594;2024-03-22T12:46:28;95971.00;;;17.84;45.60
86206;BME280;76857;48.140;11.594;2024-03-22T12:48:54;95965.41;;;18.19;44.96
86206;BME280;76857;48.140;11.594;2024-03-22T12:51:20;95967.78;;;17.87;44.30
86206;BME280;76857;48.140;11.594;2024-03-22T12:53:45;95958.84;;;17.91;44.07
86206;BME280;76857;48.140;11.594;2024-03-22T12:56:11;95955.47;;;18.15;44.64
86206;BME280;76857;48.140;11.594;2024-03-22T12:58:37;95949.59;;;18.03;44.07
86206;BME280;76857;48.140;11.594;2024-03-22T13:01:06;95949.16;;;17.85;43.83
86206;BME280;76857;48.140;11.594;2024-03-22T13:03:33;95940.34;;;18.14;43.59
86206;BME280;76857;48.140;11.594;2024-03-22T13:05:58;95934.59;;;18.25;43.45
86206;BME280;76857;48.140;11.594;2024-03-22T13:08:24;95945.19;;;18.12;43.47
86206;BME280;76857;48.140;11.594;2024-03-22T13:10:50;95928.69;;;18.18;43.05
86206;BME280;76857;48.140;11.594;2024-03-22T13:13:15;95927.13;;;18.07;42.74
86206;BME280;76857;48.140;11.594;2024-03-22T13:15:45;95919.50;;;18.19;43.84
86206;BME280;76857;48.140;11.594;2024-03-22T13:18:12;95909.63;;;18.05;44.40
86206;BME280;76857;48.140;11.594;2024-03-22T13:20:38;95905.19;;;17.80;44.11
86206;BME280;76857;48.140;11.594;2024-03-22T13:23:04;95904.22;;;18.05;44.35
86206;BME280;76857;48.140;11.594;2024-03-22T13:25:30;95905.97;;;18.24;44.50
86206;BME280;76857;48.140;11.594;2024-03-22T13:27:56;95896.81;;;17.81;44.66
86206;BME280;76857;48.140;11.594;2024-03-22T13:30:21;95894.16;;;18.15;44.35
86206;BME280;76857;48.140;11.594;2024-03-22T13:32:47;95888.91;;;18.29;43.36
86206;BME280;76857;48.140;11.594;2024-03-22T13:35:12;95873.53;;;17.90;43.28
86206;BME280;76857;48.140;11.594;2024-03-22T13:37:39;95868.09;;;17.95;43.92
86206;BME280;76857;48.140;11.594;2024-03-22T13:40:05;95872.63;;;18.05;43.93
86206;BME280;76857;48.140;11.594;2024-03-22T13:42:31;95867.47;;;18.09;44.15
86206;BME280;76857;48.140;11.594;2024-03-22T13:44:56;95868.09;;;17.95;44.14
86206;BME280;76857;48.140;11.594;2024-03-22T13:47:27;95866.59;;;18.13;42.89
86206;BME280;76857;48.140;11.594;2024-03-22T13:49:55;95857.41;;;18.14;41.49
86206;BME280;76857;48.140;11.594;2024-03-22T13:52:21;95855.81;;;18.13;42.49
86206;BME280;76857;48.140;11.594;2024-03-22T13:54:47;95846.41;;;17.72;43.54
86206;BME280;76857;48.140;11.594;2024-03-22T13:57:12;95847.88;;;17.93;44.07
86206;BME280;76857;48.140;11.594;2024-03-22T13:59:38;95842.13;;;18.05;42.24
86206;BME280;76857;48.140;11.594;2024-03-22T14:02:05;95835.59;;;18.11;41.88
86206;BME280;76857;48.140;11.594;2024-03-22T14:04:31;95834.38;;;17.93;42.75
86206;BME280;76857;48.140;11.594;2024-03-22T14:06:57;95826.78;;;17.61;43.62
86206;BME280;76857;48.140;11.594;2024-03-22T14:09:23;95821.41;;;17.90;42.75
86206;BME280;76857;48.140;11.594;2024-03-22T14:11:48;95824.28;;;17.70;42.82
86206;BME280;76857;48.140;11.594;2024-03-22T14:14:14;95822.59;;;17.79;42.55
86206;BME280;76857;48.140;11.594;2024-03-22T14:16:40;95820.16;;;17.82;42.53
86206;BME280;76857;48.140;11.594;2024-03-22T14:19:09;95820.66;;;17.84;43.34
86206;BME280;76857;48.140;11.594;2024-03-22T14:21:36;95816.69;;;17.77;43.10
86206;BME280;76857;48.140;11.594;2024-03-22T14:24:04;95812.94;;;17.68;40.94
86206;BME280;76857;48.140;11.594;2024-03-22T14:26:30;95796.16;;;17.76;41.89
86206;BME280;76857;48.140;11.594;2024-03-22T14:28:55;95798.03;;;17.80;42.25
86206;BME280;76857;48.140;11.594;2024-03-22T14:31:21;95788.38;;;17.69;42.13
86206;BME280;76857;48.140;11.594;2024-03-22T14:33:46;95781.13;;;17.65;42.03
86206;BME280;76857;48.140;11.594;2024-03-22T14:36:11;95780.03;;;17.71;41.31
86206;BME280;76857;48.140;11.594;2024-03-22T14:38:38;95779.53;;;17.64;41.23
86206;BME280;76857;48.140;11.594;2024-03-22T14:41:04;95774.72;;;17.55;42.48
86206;BME280;76857;48.140;11.594;2024-03-22T14:43:30;95772.50;;;17.19;42.15
86206;BME280;76857;48.140;11.594;2024-03-22T14:46:01;95768.66;;;17.30;42.70
86206;BME280;76857;48.140;11.594;2024-03-22T14:48:29;95767.25;;;17.42;42.87
86206;BME280;76857;48.140;11.594;2024-03-22T14:50:55;95755.09;;;17.45;42.82
86206;BME280;76857;48.140;11.594;2024-03-22T14:53:20;95752.97;;;17.37;42.67
86206;BME280;76857;48.140;11.594;2024-03-22T14:55:57;95758.38;;;17.37;42.98
86206;BME280;76857;48.140;11.594;2024-03-22T14:58:27;95750.78;;;17.44;41.80
86206;BME280;76857;48.140;11.594;2024-03-22T15:00:53;95741.38;;;17.36;40.56
86206;BME280;76857;48.140;11.594;2024-03-22T15:03:19;95741.38;;;17.36;42.16
86206;BME280;76857;48.140;11.594;2024-03-22T15:05:44;95739.50;;;17.37;41.05
86206;BME280;76857;48.140;11.594;2024-03-22T15:08:10;95743.06;;;17.27;39.79
86206;BME280;76857;48.140;11.594;2024-03-22T15:10:37;95727.94;;;17.31;39.78
86206;BME280;76857;48.140;11.594;2024-03-22T15:13:02;95729.56;;;17.32;39.42
86206;BME280;76857;48.140;11.594;2024-03-22T15:15:28;95726.56;;;17.34;36.44
86206;BME280;76857;48.140;11.594;2024-03-22T15:17:55;95719.59;;;17.28;35.30
86206;BME280;76857;48.140;11.594;2024-03-22T15:20:21;95722.00;;;17.34;36.14
86206;BME280;76857;48.140;11.594;2024-03-22T15:22:46;95715.88;;;17.24;36.03
86206;BME280;76857;48.140;11.594;2024-03-22T15:25:11;95710.47;;;17.24;36.71
86206;BME280;76857;48.140;11.594;2024-03-22T15:27:37;95710.44;;;17.29;36.15
86206;BME280;76857;48.140;11.594;2024-03-22T15:30:03;95701.53;;;17.28;35.47
86206;BME280;76857;48.140;11.594;2024-03-22T15:32:31;95696.66;;;17.30;35.83
86206;BME280;76857;48.140;11.594;2024-03-22T15:34:56;95694.72;;;17.36;36.95
86206;BME280;76857;48.140;11.594;2024-03-22T15:37:22;95692.78;;;17.41;36.98
86206;BME280;76857;48.140;11.594;2024-03-22T15:39:47;95689.09;;;17.32;36.85
86206;BME280;76857;48.140;11.594;2024-03-22T15:42:13;95685.75;;;17.11;37.67
86206;BME280;76857;48.140;11.594;2024-03-22T15:44:38;95678.47;;;17.12;38.02
86206;BME280;76857;48.140;11.594;2024-03-22T15:47:04;95676.28;;;17.14;37.87
86206;BME280;76857;48.140;11.594;2024-03-22T15:49:30;95683.94;;;17.36;38.65
86206;BME280;76857;48.140;11.594;2024-03-22T15:51:55;95682.72;;;17.52;38.11
86206;BME280;76857;48.140;11.594;2024-03-22T15:54:21;95667.25;;;17.34;36.38
86206;BME280;76857;48.140;11.594;2024-03-22T15:56:47;95669.09;;;17.38;36.82
86206;BME280;76857;48.140;11.594;2024-03-22T15:59:13;95671.69;;;17.48;36.13
86206;BME280;76857;48.140;11.594;2024-03-22T16:01:39;95666.03;;;17.50;35.42
86206;BME280;76857;48.140;11.594;2024-03-22T16:04:04;95658.47;;;17.47;33.51
86206;BME280;76857;48.140;11.594;2024-03-22T16:06:31;95666.72;;;17.32;33.62
86206;BME280;76857;48.140;11.594;2024-03-22T16:08:56;95656.78;;;17.27;31.28
86206;BME280;76857;48.140;11.594;2024-03-22T16:11:22;95659.75;;;17.26;31.67
86206;BME280;76857;48.140;11.594;2024-03-22T16:13:47;95652.28;;;17.18;30.89
86206;BME280;76857;48.140;11.594;2024-03-22T16:16:12;95653.94;;;17.08;30.20
86206;BME280;76857;48.140;11.594;2024-03-22T16:18:38;95656.13;;;17.06;32.81
86206;BME280;76857;48.140;11.594;2024-03-22T16:21:03;95655.97;;;16.88;29.90
86206;BME280;76857;48.140;11.594;2024-03-22T16:23:29;95653.00;;;16.89;32.62
86206;BME280;76857;48.140;11.594;2024-03-22T16:25:54;95641.69;;;16.87;31.65
86206;BME280;76857;48.140;11.594;2024-03-22T16:28:20;95636.47;;;17.01;31.67
86206;BME280;76857;48.140;11.594;2024-03-22T16:30:45;95643.16;;;17.08;32.16
86206;BME280;76857;48.140;11.594;2024-03-22T16:33:11;95636.25;;;16.92;31.77
86206;BME280;76857;48.140;11.594;2024-03-22T16:35:36;95630.41;;;16.80;32.34
86206;BME280;76857;48.140;11.594;2024-03-22T16:38:02;95641.84;;;16.62;31.67
86206;BME280;76857;48.140;11.594;2024-03-22T16:40:27;95627.50;;;16.71;33.68
86206;BME280;76857;48.140;11.594;2024-03-22T16:42:53;95628.84;;;16.74;34.24
86206;BME280;76857;48.140;11.594;2024-03-22T16:45:19;95620.19;;;16.77;34.12
86206;BME280;76857;48.140;11.594;2024-03-22T16:47:44;95614.63;;;16.58;33.38
86206;BME280;76857;48.140;11.594;2024-03-22T16:50:10;95622.31;;;16.31;32.35
86206;BME280;76857;48.140;11.594;2024-03-22T16:52:39;95616.16;;;16.25;34.28
86206;BME280;76857;48.140;11.594;2024-03-22T16:55:05;95618.88;;;16.15;34.13
86206;BME280;76857;48.140;11.594;2024-03-22T16:57:33;95617.50;;;16.28;35.96
86206;BME280;76857;48.140;11.594;2024-03-22T16:59:59;95610.69;;;16.41;34.84
86206;BME280;76857;48.140;11.594;2024-03-22T17:02:24;95613.63;;;16.44;35.08
86206;BME280;76857;48.140;11.594;2024-03-22T17:04:50;95608.78;;;16.46;34.37
86206;BME280;76857;48.140;11.594;2024-03-22T17:07:15;95612.31;;;16.42;34.30
86206;BME280;76857;48.140;11.594;2024-03-22T17:09:41;95609.72;;;16.21;33.53
86206;BME280;76857;48.140;11.594;2024-03-22T17:12:06;95603.22;;;16.27;35.10
86206;BME280;76857;48.140;11.594;2024-03-22T17:14:32;95606.97;;;16.26;35.21
86206;BME280;76857;48.140;11.594;2024-03-22T17:16:58;95600.31;;;16.19;34.31
86206;BME280;76857;48.140;11.594;2024-03-22T17:19:25;95609.22;;;16.14;34.75
86206;BME280;76857;48.140;11.594;2024-03-22T17:21:50;95602.75;;;16.10;35.45
86206;BME280;76857;48.140;11.594;2024-03-22T17:24:16;95604.41;;;16.06;36.87
86206;BME280;76857;48.140;11.594;2024-03-22T17:26:43;95604.19;;;15.98;36.72
86206;BME280;76857;48.140;11.594;2024-03-22T17:29:08;95602.56;;;15.92;37.42
86206;BME280;76857;48.140;11.594;2024-03-22T17:31:36;95604.47;;;15.86;36.62
86206;BME280;76857;48.140;11.594;2024-03-22T17:34:02;95599.13;;;15.76;38.37
86206;BME280;76857;48.140;11.594;2024-03-22T17:36:27;95592.66;;;15.77;39.45
86206;BME280;76857;48.140;11.594;2024-03-22T17:38:53;95601.31;;;15.69;39.58
86206;BME280;76857;48.140;11.594;2024-03-22T17:41:18;95597.00;;;15.68;40.10
86206;BME280;76857;48.140;11.594;2024-03-22T17:43:48;95603.19;;;15.63;39.42
86206;BME280;76857;48.140;11.594;2024-03-22T17:46:15;95598.09;;;15.62;40.16